»·PEaware :: UAL291 KSFO-KIAD

UAL291 :: KSFO-KIAD

FLIGHT INFORMATION

Flight Status: Arrived
Operator:
United Airlines
More flights by this operator :: More flights under this callsign
Pilot: Thomas C. (28508)
Aircraft: BOEING 777-200
(B772)
More flights by this aircraft type
Origin: KSFO San Francisco Intl
United States
Destination: KIAD Washington Dulles Intl
United States
More flights between these airports :: More routes between these airports
Route: TRUKN2 TIPRE Q126 BASNN KD63W DRABS GUZIK SENTR MGW GIBBZ3
File this flight plan on PilotEdge
Remarks: PBN / A1B1C1D1L1O1S2 NAV / RNVD1E2A1 DOF / 200325 REG / N217UA EET / KZLC0028 KZDV0106 KZMP0146 KZAU0224 KZID0257 KZOB0319 KZDC0329 SEL / QREJ OPR / UAL PER / D RMK / TCAS
Altitude:
(Current/Filed)
39,000ft
Speed:
(Current/Filed)
475kts
Departed: 25-Mar-20 02:14 PM
Arrived: 25-Mar-20 06:19 PM
Distance/Time
Traveled:
2096nm/4:05
Distance/Time
To Go:
Arrived

Flight Plot

Page will automatically refresh every two minutes.


Map Options




Map Legend


Flown Route
Filed Route
Departure Airport
Arrival Airport
Navaid (VOR, NDB)
Fix

Horizontal Profiles

Position Reports

Time Latitude Longitude Heading Altitude Ground
Speed
25-Mar-20 13:40 37.620803 -122.387757 197 26ft 0kts
25-Mar-20 13:41 37.620803 -122.387757 197 26ft 0kts
25-Mar-20 13:42 37.620803 -122.387757 197 26ft 0kts
25-Mar-20 13:43 37.620803 -122.387757 197 26ft 0kts
25-Mar-20 13:44 37.620803 -122.387757 197 26ft 0kts
25-Mar-20 13:45 37.620803 -122.387757 197 26ft 0kts
25-Mar-20 13:46 37.620803 -122.387757 197 26ft 0kts
25-Mar-20 13:47 37.620803 -122.387757 197 26ft 0kts
25-Mar-20 13:48 37.620803 -122.387757 197 26ft 0kts
25-Mar-20 13:49 37.620803 -122.387757 197 26ft 0kts
25-Mar-20 13:50 37.620803 -122.387757 197 26ft 0kts
25-Mar-20 13:51 37.620803 -122.387757 197 26ft 0kts
25-Mar-20 13:52 37.620803 -122.387757 197 26ft 0kts
25-Mar-20 13:53 37.620803 -122.387757 197 26ft 0kts
25-Mar-20 13:54 37.620803 -122.387757 197 26ft 0kts
25-Mar-20 13:55 37.620803 -122.387757 197 26ft 0kts
25-Mar-20 13:56 37.620803 -122.387757 197 26ft 0kts
25-Mar-20 13:57 37.620803 -122.387757 197 26ft 0kts
25-Mar-20 13:58 37.620803 -122.387757 197 26ft 0kts
25-Mar-20 13:59 37.620803 -122.387757 197 26ft 0kts
25-Mar-20 14:00 37.620804 -122.387757 197 26ft 0kts
25-Mar-20 14:01 37.620804 -122.387757 197 26ft 0kts
25-Mar-20 14:02 37.620804 -122.387757 197 26ft 0kts
25-Mar-20 14:03 37.620941 -122.387710 199 26ft 2kts
25-Mar-20 14:04 37.621480 -122.387498 197 26ft 0kts
25-Mar-20 14:05 37.622011 -122.387656 130 26ft 2kts
25-Mar-20 14:06 37.622095 -122.387809 116 26ft 0kts
25-Mar-20 14:07 37.622095 -122.387809 116 26ft 0kts
25-Mar-20 14:08 37.621554 -122.386545 118 26ft 17kts
25-Mar-20 14:09 37.619260 -122.381045 117 26ft 11kts
25-Mar-20 14:10 37.615634 -122.380304 208 26ft 18kts
25-Mar-20 14:11 37.610309 -122.383858 211 26ft 11kts
25-Mar-20 14:12 37.609124 -122.383530 123 26ft 3kts
25-Mar-20 14:13 37.610975 -122.380897 27 26ft 65kts
25-Mar-20 14:14 37.645031 -122.347863 52 1383ft 226kts
25-Mar-20 14:15 37.687796 -122.271216 53 5669ft 278kts
25-Mar-20 14:16 37.731817 -122.186652 56 9896ft 300kts
25-Mar-20 14:17 37.783084 -122.087754 55 12935ft 360kts
25-Mar-20 14:18 37.837608 -121.975340 63 16463ft 390kts
25-Mar-20 14:19 37.888302 -121.848058 63 19631ft 418kts
25-Mar-20 14:20 37.942025 -121.712134 63 22480ft 444kts
25-Mar-20 14:21 37.998584 -121.568369 64 25158ft 469kts
25-Mar-20 14:22 38.058545 -121.415222 65 27547ft 496kts
25-Mar-20 14:23 38.121526 -121.253556 66 29659ft 521kts
25-Mar-20 14:24 38.186605 -121.085407 67 31755ft 540kts
25-Mar-20 14:25 38.224686 -120.902688 84 34421ft 534kts
25-Mar-20 14:26 38.250695 -120.719472 84 37222ft 524kts
25-Mar-20 14:27 38.276287 -120.536401 83 39073ft 520kts
25-Mar-20 14:28 38.301313 -120.355248 84 39082ft 522kts
25-Mar-20 14:29 38.326226 -120.172668 84 39070ft 523kts
25-Mar-20 14:30 38.350878 -119.989790 85 39072ft 524kts
25-Mar-20 14:31 38.375226 -119.806895 85 38887ft 525kts
25-Mar-20 14:32 38.399430 -119.622852 85 38890ft 526kts
25-Mar-20 14:33 38.423283 -119.438931 84 38891ft 524kts
25-Mar-20 14:34 38.446835 -119.255519 85 38882ft 524kts
25-Mar-20 14:35 38.470056 -119.072014 85 38883ft 526kts
25-Mar-20 14:36 38.493151 -118.887143 85 38886ft 527kts
25-Mar-20 14:37 38.515891 -118.702683 85 38890ft 528kts
25-Mar-20 14:38 38.538411 -118.517502 85 38981ft 529kts
25-Mar-20 14:39 38.560408 -118.334220 86 38972ft 530kts
25-Mar-20 14:40 38.582441 -118.147993 86 38908ft 531kts
25-Mar-20 14:41 38.604247 -117.961140 86 38919ft 531kts
25-Mar-20 14:42 38.625835 -117.773429 86 38957ft 534kts
25-Mar-20 14:43 38.647081 -117.585994 86 38894ft 534kts
25-Mar-20 14:44 38.668143 -117.397413 86 38898ft 535kts
25-Mar-20 14:45 38.693841 -117.211883 82 38888ft 540kts
25-Mar-20 14:46 38.726015 -117.023562 82 38888ft 541kts
25-Mar-20 14:47 38.757735 -116.835541 82 38892ft 542kts
25-Mar-20 14:48 38.789352 -116.646153 82 38896ft 543kts
25-Mar-20 14:49 38.820744 -116.456103 82 38900ft 544kts
25-Mar-20 14:50 38.851541 -116.267751 83 38886ft 544kts
25-Mar-20 14:51 38.882269 -116.077608 83 38890ft 546kts
25-Mar-20 14:52 38.912814 -115.886538 83 38894ft 547kts
25-Mar-20 14:53 38.943084 -115.695074 83 38871ft 548kts
25-Mar-20 14:54 38.973151 -115.502712 83 38875ft 549kts
25-Mar-20 14:55 39.002731 -115.311436 84 38859ft 550kts
25-Mar-20 14:56 39.032223 -115.118316 84 38864ft 551kts
25-Mar-20 14:57 39.061457 -114.924696 84 38869ft 552kts
25-Mar-20 14:58 39.090437 -114.730469 84 38873ft 553kts
25-Mar-20 14:59 39.118906 -114.537362 84 38862ft 553kts
25-Mar-20 15:00 39.147155 -114.343403 84 38864ft 554kts
25-Mar-20 15:01 39.175216 -114.148306 84 38851ft 554kts
25-Mar-20 15:02 39.202963 -113.953009 84 38855ft 555kts
25-Mar-20 15:03 39.230509 -113.756652 84 38842ft 556kts
25-Mar-20 15:04 39.257684 -113.560449 84 38837ft 557kts
25-Mar-20 15:05 39.284571 -113.363795 84 38841ft 558kts
25-Mar-20 15:06 39.313991 -113.166520 82 38827ft 560kts
25-Mar-20 15:07 39.346935 -112.969564 82 38830ft 561kts
25-Mar-20 15:08 39.379559 -112.772160 82 38834ft 562kts
25-Mar-20 15:09 39.411854 -112.574534 82 38839ft 563kts
25-Mar-20 15:10 39.443840 -112.376578 82 38844ft 563kts
25-Mar-20 15:11 39.475536 -112.178115 82 38801ft 564kts
25-Mar-20 15:12 39.506960 -111.979044 82 38805ft 565kts
25-Mar-20 15:13 39.538153 -111.779085 82 38810ft 566kts
25-Mar-20 15:14 39.568980 -111.579093 82 38815ft 567kts
25-Mar-20 15:15 39.599523 -111.378531 82 38820ft 568kts
25-Mar-20 15:16 39.629864 -111.176847 83 38802ft 568kts
25-Mar-20 15:17 39.659803 -110.975286 83 38807ft 570kts
25-Mar-20 15:18 39.689474 -110.772997 83 38812ft 571kts
25-Mar-20 15:19 39.718803 -110.570465 83 38818ft 572kts
25-Mar-20 15:20 39.747854 -110.367245 83 38823ft 573kts
25-Mar-20 15:21 39.776394 -110.164988 84 38805ft 573kts
25-Mar-20 15:23 39.804840 -109.960634 84 38810ft 575kts
25-Mar-20 15:24 39.832929 -109.756064 83 38815ft 576kts
25-Mar-20 15:25 39.860758 -109.550577 83 38820ft 576kts
25-Mar-20 15:26 39.887969 -109.346864 84 38825ft 577kts
25-Mar-20 15:27 39.915058 -109.141310 84 38806ft 576kts
25-Mar-20 15:28 39.942260 -108.935630 83 38813ft 578kts
25-Mar-20 15:29 39.970023 -108.728989 83 38817ft 579kts
25-Mar-20 15:30 39.997365 -108.522555 83 38823ft 580kts
25-Mar-20 15:31 40.024055 -108.318276 83 38865ft 580kts
25-Mar-20 15:32 40.050780 -108.110569 83 38862ft 580kts
25-Mar-20 15:33 40.077132 -107.902783 83 38867ft 580kts
25-Mar-20 15:34 40.103045 -107.695387 83 38866ft 581kts
25-Mar-20 15:35 40.128780 -107.486292 83 38867ft 581kts
25-Mar-20 15:36 40.153906 -107.279144 84 38871ft 581kts
25-Mar-20 15:37 40.178832 -107.070000 83 38880ft 582kts
25-Mar-20 15:38 40.203330 -106.861370 83 38879ft 582kts
25-Mar-20 15:39 40.227515 -106.652035 83 38918ft 582kts
25-Mar-20 15:40 40.251375 -106.442121 83 38898ft 583kts
25-Mar-20 15:40 40.271028 -106.266707 84 38875ft 582kts
25-Mar-20 15:42 40.298034 -106.021070 83 38910ft 583kts
25-Mar-20 15:43 40.320737 -105.810849 83 38916ft 584kts
25-Mar-20 15:43 40.339383 -105.635385 83 38921ft 584kts
25-Mar-20 15:44 40.361450 -105.424316 83 38792ft 584kts
25-Mar-20 15:46 40.386714 -105.177809 84 38772ft 585kts
25-Mar-20 15:46 40.404507 -105.000932 84 38776ft 586kts
25-Mar-20 15:47 40.425441 -104.789264 83 38782ft 585kts
25-Mar-20 15:48 40.446018 -104.577104 83 38788ft 585kts
25-Mar-20 15:49 40.466132 -104.365609 83 38794ft 585kts
25-Mar-20 15:50 40.485900 -104.153574 84 38772ft 583kts
25-Mar-20 15:51 40.504078 -103.942398 86 38781ft 584kts
25-Mar-20 15:52 40.518729 -103.729660 86 38784ft 584kts
25-Mar-20 15:53 40.533002 -103.517569 86 38971ft 582kts
25-Mar-20 15:54 40.546915 -103.305307 87 38983ft 583kts
25-Mar-20 15:55 40.560380 -103.093134 87 38991ft 583kts
25-Mar-20 15:56 40.573485 -102.880822 87 38997ft 583kts
25-Mar-20 15:57 40.586214 -102.668355 87 38783ft 582kts
25-Mar-20 15:58 40.598503 -102.456373 87 38792ft 583kts
25-Mar-20 15:59 40.610474 -102.243420 87 38773ft 582kts
25-Mar-20 16:00 40.622003 -102.030951 87 38777ft 582kts
25-Mar-20 16:01 40.633189 -101.817701 87 38783ft 582kts
25-Mar-20 16:02 40.643922 -101.605600 87 38788ft 582kts
25-Mar-20 16:03 40.654284 -101.393055 87 38794ft 582kts
25-Mar-20 16:04 40.664278 -101.180076 88 38773ft 582kts
25-Mar-20 16:05 40.673872 -100.967087 88 38779ft 582kts
25-Mar-20 16:06 40.683061 -100.754405 88 38785ft 582kts
25-Mar-20 16:07 40.691859 -100.541700 88 38790ft 582kts
25-Mar-20 16:08 40.700278 -100.328774 88 38754ft 581kts
25-Mar-20 16:09 40.708288 -100.116010 88 38748ft 581kts
25-Mar-20 16:10 40.715875 -99.904161 88 38754ft 581kts
25-Mar-20 16:11 40.723091 -99.691227 88 38759ft 581kts
25-Mar-20 16:12 40.729938 -99.478852 88 38765ft 581kts
25-Mar-20 16:13 40.736419 -99.265673 88 38743ft 581kts
25-Mar-20 16:14 40.742455 -99.052905 88 38749ft 582kts
25-Mar-20 16:15 40.748146 -98.839027 88 38755ft 582kts
25-Mar-20 16:16 40.753432 -98.625578 88 38761ft 582kts
25-Mar-20 16:17 40.758296 -98.413373 88 38794ft 580kts
25-Mar-20 16:18 40.765061 -98.201896 87 38772ft 583kts
25-Mar-20 16:19 40.772015 -97.988387 87 38777ft 584kts
25-Mar-20 16:20 40.778578 -97.774736 87 38779ft 584kts
25-Mar-20 16:21 40.784771 -97.560177 87 38763ft 584kts
25-Mar-20 16:22 40.790563 -97.345773 88 38766ft 585kts
25-Mar-20 16:23 40.795964 -97.131160 88 38719ft 585kts
25-Mar-20 16:24 40.800957 -96.916840 88 38724ft 585kts
25-Mar-20 16:25 40.805579 -96.701247 88 38732ft 586kts
25-Mar-20 16:26 40.809793 -96.486004 87 38735ft 586kts
25-Mar-20 16:27 40.813640 -96.270165 88 38740ft 586kts
25-Mar-20 16:28 40.817036 -96.054575 88 38723ft 587kts
25-Mar-20 16:29 40.820051 -95.839000 88 38728ft 587kts
25-Mar-20 16:30 40.822660 -95.623809 88 38733ft 587kts
25-Mar-20 16:31 40.824874 -95.408173 88 38766ft 588kts
25-Mar-20 16:32 40.826693 -95.192317 89 38745ft 588kts
25-Mar-20 16:33 40.828109 -94.975140 88 38750ft 588kts
25-Mar-20 16:34 40.829116 -94.758730 88 38756ft 589kts
25-Mar-20 16:35 40.829720 -94.542611 88 38786ft 589kts
25-Mar-20 16:36 40.829929 -94.326460 89 38778ft 589kts
25-Mar-20 16:37 40.829719 -94.109828 89 38774ft 589kts
25-Mar-20 16:38 40.829109 -93.893188 89 38779ft 589kts
25-Mar-20 16:39 40.828098 -93.677034 89 38785ft 590kts
25-Mar-20 16:40 40.826679 -93.460499 89 38790ft 590kts
25-Mar-20 16:41 40.824867 -93.243697 89 38770ft 590kts
25-Mar-20 16:42 40.822631 -93.027407 89 38775ft 590kts
25-Mar-20 16:43 40.820014 -92.810531 89 38809ft 591kts
25-Mar-20 16:44 40.816970 -92.593631 89 38815ft 591kts
25-Mar-20 16:45 40.813526 -92.377157 89 38794ft 591kts
25-Mar-20 16:46 40.809676 -92.160502 89 38781ft 586kts
25-Mar-20 16:47 40.803990 -91.944754 92 38807ft 593kts
25-Mar-20 16:48 40.794261 -91.728031 92 38866ft 592kts
25-Mar-20 16:49 40.784067 -91.511040 92 38869ft 593kts
25-Mar-20 16:50 40.773534 -91.294829 92 38845ft 593kts
25-Mar-20 16:51 40.762456 -91.077076 92 38855ft 594kts
25-Mar-20 16:52 40.751044 -90.860273 92 38861ft 594kts
25-Mar-20 16:53 40.739204 -90.643140 92 38894ft 594kts
25-Mar-20 16:54 40.726948 -90.425954 92 38900ft 595kts
25-Mar-20 16:55 40.714221 -90.207654 93 38878ft 595kts
25-Mar-20 16:56 40.701146 -89.990618 92 38911ft 596kts
25-Mar-20 16:57 40.687645 -89.773341 92 38918ft 595kts
25-Mar-20 16:58 40.673742 -89.556184 92 38924ft 594kts
25-Mar-20 16:59 40.659496 -89.340059 93 38925ft 593kts
25-Mar-20 17:00 40.644827 -89.123741 93 38935ft 592kts
25-Mar-20 17:01 40.629827 -88.908563 93 38940ft 591kts
25-Mar-20 17:02 40.614430 -88.693515 92 38947ft 590kts
25-Mar-20 17:03 40.598687 -88.479255 92 38953ft 589kts
25-Mar-20 17:04 40.582721 -88.267096 93 38931ft 588kts
25-Mar-20 17:05 40.566195 -88.053365 93 38937ft 588kts
25-Mar-20 17:06 40.549268 -87.839393 93 38943ft 587kts
25-Mar-20 17:07 40.532024 -87.626486 92 38976ft 586kts
25-Mar-20 17:08 40.514422 -87.414071 92 38982ft 585kts
25-Mar-20 17:09 40.496437 -87.201794 93 38961ft 584kts
25-Mar-20 17:10 40.478056 -86.989623 93 38967ft 583kts
25-Mar-20 17:11 40.459333 -86.778040 93 38973ft 583kts
25-Mar-20 17:12 40.440263 -86.566999 92 38978ft 582kts
25-Mar-20 17:13 40.420842 -86.356428 92 38984ft 581kts
25-Mar-20 17:14 40.401078 -86.146384 93 38986ft 580kts
25-Mar-20 17:15 40.380917 -85.936433 92 38992ft 579kts
25-Mar-20 17:16 40.360455 -85.727145 92 39002ft 578kts
25-Mar-20 17:17 40.339633 -85.518258 92 39008ft 577kts
25-Mar-20 17:18 40.318502 -85.310050 93 38980ft 572kts
25-Mar-20 17:19 40.297044 -85.104075 94 39001ft 575kts
25-Mar-20 17:20 40.272552 -84.896275 94 38999ft 576kts
25-Mar-20 17:21 40.247783 -84.689997 94 39005ft 574kts
25-Mar-20 17:22 40.222647 -84.483892 94 39010ft 573kts
25-Mar-20 17:23 40.197135 -84.277630 95 38990ft 571kts
25-Mar-20 17:24 40.171458 -84.073568 95 38996ft 570kts
25-Mar-20 17:25 40.145443 -83.869631 95 39028ft 568kts
25-Mar-20 17:26 40.119143 -83.666301 95 39033ft 566kts
25-Mar-20 17:27 40.092591 -83.463965 95 39038ft 564kts
25-Mar-20 17:28 40.065880 -83.263062 96 38995ft 564kts
25-Mar-20 17:29 40.038577 -83.060870 95 38999ft 562kts
25-Mar-20 17:30 40.011198 -82.860646 95 39003ft 560kts
25-Mar-20 17:31 39.983450 -82.660377 95 39008ft 558kts
25-Mar-20 17:32 39.955639 -82.462307 95 39012ft 556kts
25-Mar-20 17:33 39.927411 -82.263724 96 38997ft 555kts
25-Mar-20 17:34 39.899045 -82.066926 96 38999ft 554kts
25-Mar-20 17:35 39.870310 -81.869899 96 38991ft 552kts
25-Mar-20 17:36 39.841396 -81.674098 96 38995ft 550kts
25-Mar-20 17:37 39.812238 -81.479019 96 38999ft 548kts
25-Mar-20 17:38 39.783076 -81.286107 97 39009ft 547kts
25-Mar-20 17:39 39.753389 -81.092236 97 39016ft 545kts
25-Mar-20 17:41 39.723622 -80.899992 97 39019ft 543kts
25-Mar-20 17:42 39.693547 -80.707972 97 39023ft 542kts
25-Mar-20 17:43 39.663307 -80.517072 97 39052ft 539kts
25-Mar-20 17:44 39.633259 -80.329345 98 38403ft 540kts
25-Mar-20 17:45 39.602359 -80.138732 97 36082ft 535kts
25-Mar-20 17:46 39.571575 -79.950664 97 33786ft 531kts
25-Mar-20 17:47 39.539167 -79.762680 97 31434ft 528kts
25-Mar-20 17:48 39.505966 -79.578392 98 28969ft 525kts
25-Mar-20 17:49 39.472909 -79.395222 100 26550ft 516kts
25-Mar-20 17:50 39.440703 -79.220576 101 24249ft 500kts
25-Mar-20 17:51 39.413318 -79.066638 100 24154ft 414kts
25-Mar-20 17:52 39.385903 -78.911205 100 20086ft 475kts
25-Mar-20 17:53 39.359288 -78.763361 100 18102ft 359kts
25-Mar-20 17:54 39.336425 -78.636646 100 16573ft 363kts
25-Mar-20 17:55 39.313255 -78.508441 99 14862ft 360kts
25-Mar-20 17:56 39.290312 -78.383186 104 13194ft 354kts
25-Mar-20 17:57 39.239989 -78.277823 122 11710ft 347kts
25-Mar-20 17:57 39.195466 -78.193085 122 10947ft 324kts
25-Mar-20 17:59 39.139116 -78.086160 122 9678ft 292kts
25-Mar-20 18:00 39.092801 -77.998516 122 9144ft 288kts
25-Mar-20 18:00 39.053631 -77.925104 122 8030ft 294kts
25-Mar-20 18:02 39.000399 -77.825178 123 7030ft 270kts
25-Mar-20 18:03 38.963571 -77.738676 93 6988ft 270kts
25-Mar-20 18:03 38.954830 -77.657259 96 7007ft 268kts
25-Mar-20 18:04 38.899967 -77.596865 158 6429ft 271kts
25-Mar-20 18:05 38.827187 -77.574957 182 5326ft 263kts
25-Mar-20 18:06 38.755194 -77.577689 183 5023ft 258kts
25-Mar-20 18:07 38.683754 -77.581693 184 4993ft 250kts
25-Mar-20 18:08 38.621674 -77.575962 139 5006ft 206kts
25-Mar-20 18:09 38.630161 -77.519993 44 5023ft 179kts
25-Mar-20 18:10 38.666357 -77.476908 31 5001ft 173kts
25-Mar-20 18:11 38.712833 -77.463077 8 4240ft 170kts
25-Mar-20 18:12 38.760152 -77.462156 0 3391ft 165kts
25-Mar-20 18:13 38.805026 -77.461684 359 2710ft 156kts
25-Mar-20 18:14 38.843679 -77.461159 358 2247ft 133kts
25-Mar-20 18:15 38.879477 -77.460563 358 1472ft 130kts
25-Mar-20 18:16 38.915339 -77.460163 359 827ft 129kts
25-Mar-20 18:17 38.949359 -77.459635 359 330ft 59kts
25-Mar-20 18:18 38.957219 -77.456545 89 329ft 11kts
25-Mar-20 18:19 38.953575 -77.455991 180 329ft 19kts
25-Mar-20 18:20 38.947358 -77.456085 180 329ft 23kts
25-Mar-20 18:21 38.944196 -77.454279 89 329ft 15kts
25-Mar-20 18:22 38.944132 -77.446974 89 329ft 7kts
25-Mar-20 18:23 38.944581 -77.443673 345 329ft 4kts
25-Mar-20 18:24 38.944824 -77.443739 348 329ft 0kts
25-Mar-20 18:25 38.944824 -77.443739 348 329ft 0kts
25-Mar-20 18:26 38.944824 -77.443739 348 329ft 0kts

Navigation Log

Ident Type
Flight plan parsing failed, navigation log unavailable